sensor_id;sensor_type;location;lat;lon;timestamp;pressure;altitude;pressure_sealevel;temperature;humidity
81865;BME280;71313;43.514;1.500;2023-08-24T00:00:20;99626.66;;;29.40;60.15
81865;BME280;71313;43.514;1.500;2023-08-24T00:02:46;99626.66;;;29.40;60.08
81865;BME280;71313;43.514;1.500;2023-08-24T00:05:12;99626.66;;;29.40;59.96
81865;BME280;71313;43.514;1.500;2023-08-24T00:07:38;99629.41;;;29.40;60.07
81865;BME280;71313;43.514;1.500;2023-08-24T00:10:04;99621.97;;;29.41;59.70
81865;BME280;71313;43.514;1.500;2023-08-24T00:12:29;99616.66;;;29.39;59.73
81865;BME280;71313;43.514;1.500;2023-08-24T00:14:55;99612.81;;;29.40;59.93
81865;BME280;71313;43.514;1.500;2023-08-24T00:17:20;99613.91;;;29.39;60.13
81865;BME280;71313;43.514;1.500;2023-08-24T00:19:48;99613.91;;;29.39;59.90
81865;BME280;71313;43.514;1.500;2023-08-24T00:22:13;99615.59;;;29.40;59.70
81865;BME280;71313;43.514;1.500;2023-08-24T00:24:39;99618.34;;;29.40;60.10
81865;BME280;71313;43.514;1.500;2023-08-24T00:27:04;99624.97;;;29.39;60.37
81865;BME280;71313;43.514;1.500;2023-08-24T00:29:30;99614.75;;;29.40;59.73
81865;BME280;71313;43.514;1.500;2023-08-24T00:31:55;99621.13;;;29.40;60.21
81865;BME280;71313;43.514;1.500;2023-08-24T00:34:20;99613.91;;;29.39;59.70
81865;BME280;71313;43.514;1.500;2023-08-24T00:36:46;99615.59;;;29.40;59.91
81865;BME280;71313;43.514;1.500;2023-08-24T00:39:11;99619.44;;;29.39;60.10
81865;BME280;71313;43.514;1.500;2023-08-24T00:41:37;99609.22;;;29.40;59.68
81865;BME280;71313;43.514;1.500;2023-08-24T00:44:02;99615.59;;;29.40;59.96
81865;BME280;71313;43.514;1.500;2023-08-24T00:46:28;99613.91;;;29.39;60.06
81865;BME280;71313;43.514;1.500;2023-08-24T00:48:54;99614.75;;;29.40;60.09
81865;BME280;71313;43.514;1.500;2023-08-24T00:51:24;99621.13;;;29.40;60.17
81865;BME280;71313;43.514;1.500;2023-08-24T00:53:50;99617.50;;;29.40;60.08
81865;BME280;71313;43.514;1.500;2023-08-24T00:56:16;99615.59;;;29.40;60.22
81865;BME280;71313;43.514;1.500;2023-08-24T00:58:42;99611.75;;;29.41;60.52
81865;BME280;71313;43.514;1.500;2023-08-24T01:01:09;99611.97;;;29.40;60.13
81865;BME280;71313;43.514;1.500;2023-08-24T01:03:35;99608.38;;;29.39;59.98
81865;BME280;71313;43.514;1.500;2023-08-24T01:06:00;99614.75;;;29.40;59.95
81865;BME280;71313;43.514;1.500;2023-08-24T01:08:26;99619.44;;;29.39;60.05
81865;BME280;71313;43.514;1.500;2023-08-24T01:11:04;99608.38;;;29.39;59.75
81865;BME280;71313;43.514;1.500;2023-08-24T01:13:48;99610.06;;;29.40;59.74
81865;BME280;71313;43.514;1.500;2023-08-24T01:16:19;99613.91;;;29.39;59.59
81865;BME280;71313;43.514;1.500;2023-08-24T01:18:47;99608.38;;;29.39;60.01
81865;BME280;71313;43.514;1.500;2023-08-24T01:21:14;99605.59;;;29.39;60.08
81865;BME280;71313;43.514;1.500;2023-08-24T01:26:28;99600.31;;;29.38;59.69
81865;BME280;71313;43.514;1.500;2023-08-24T01:28:54;99601.16;;;29.38;59.85
81865;BME280;71313;43.514;1.500;2023-08-24T01:31:20;99598.41;;;29.38;59.71
81865;BME280;71313;43.514;1.500;2023-08-24T01:33:45;99596.47;;;29.39;59.72
81865;BME280;71313;43.514;1.500;2023-08-24T01:36:13;99590.94;;;29.39;59.82
81865;BME280;71313;43.514;1.500;2023-08-24T01:38:39;99590.94;;;29.39;60.39
81865;BME280;71313;43.514;1.500;2023-08-24T01:43:41;99588.19;;;29.39;59.71
81865;BME280;71313;43.514;1.500;2023-08-24T01:46:11;99587.34;;;29.38;59.82
81865;BME280;71313;43.514;1.500;2023-08-24T01:48:38;99591.78;;;29.39;59.86
81865;BME280;71313;43.514;1.500;2023-08-24T01:51:04;99586.25;;;29.39;60.08
81865;BME280;71313;43.514;1.500;2023-08-24T01:53:31;99584.34;;;29.40;60.00
81865;BME280;71313;43.514;1.500;2023-08-24T01:55:57;99580.97;;;29.38;59.49
81865;BME280;71313;43.514;1.500;2023-08-24T01:58:23;99573.50;;;29.38;59.68
81865;BME280;71313;43.514;1.500;2023-08-24T02:00:48;99575.19;;;29.39;59.94
81865;BME280;71313;43.514;1.500;2023-08-24T02:03:14;99582.66;;;29.39;59.99
81865;BME280;71313;43.514;1.500;2023-08-24T02:05:39;99584.56;;;29.38;59.82
81865;BME280;71313;43.514;1.500;2023-08-24T02:08:05;99573.50;;;29.38;59.20
81865;BME280;71313;43.514;1.500;2023-08-24T02:10:30;99575.19;;;29.39;59.61
81865;BME280;71313;43.514;1.500;2023-08-24T02:12:56;99580.97;;;29.38;59.95
81865;BME280;71313;43.514;1.500;2023-08-24T02:15:22;99570.75;;;29.38;59.87
81865;BME280;71313;43.514;1.500;2023-08-24T02:17:47;99573.50;;;29.38;59.76
81865;BME280;71313;43.514;1.500;2023-08-24T02:20:12;99565.22;;;29.38;59.74
81865;BME280;71313;43.514;1.500;2023-08-24T02:22:38;99568.84;;;29.39;60.09
81865;BME280;71313;43.514;1.500;2023-08-24T02:25:05;99561.63;;;29.38;59.77
81865;BME280;71313;43.514;1.500;2023-08-24T02:27:31;99568.00;;;29.38;59.60
81865;BME280;71313;43.514;1.500;2023-08-24T02:29:57;99565.22;;;29.38;59.74
81865;BME280;71313;43.514;1.500;2023-08-24T02:32:22;99561.63;;;29.38;59.58
81865;BME280;71313;43.514;1.500;2023-08-24T02:34:48;99560.78;;;29.37;59.84
81865;BME280;71313;43.514;1.500;2023-08-24T02:37:13;99562.47;;;29.38;59.68
81865;BME280;71313;43.514;1.500;2023-08-24T02:39:39;99560.78;;;29.37;59.87
81865;BME280;71313;43.514;1.500;2023-08-24T02:42:05;99562.47;;;29.38;59.25
81865;BME280;71313;43.514;1.500;2023-08-24T02:44:30;99558.84;;;29.38;59.39
81865;BME280;71313;43.514;1.500;2023-08-24T02:46:56;99551.41;;;29.38;59.86
81865;BME280;71313;43.514;1.500;2023-08-24T02:49:22;99551.41;;;29.38;59.53
81865;BME280;71313;43.514;1.500;2023-08-24T02:51:48;99544.19;;;29.37;59.57
81865;BME280;71313;43.514;1.500;2023-08-24T02:54:14;99541.41;;;29.37;59.91
81865;BME280;71313;43.514;1.500;2023-08-24T02:56:39;99533.13;;;29.37;59.62
81865;BME280;71313;43.514;1.500;2023-08-24T02:59:04;99533.97;;;29.38;60.10
81865;BME280;71313;43.514;1.500;2023-08-24T03:01:30;99529.28;;;29.38;59.46
81865;BME280;71313;43.514;1.500;2023-08-24T03:03:55;99530.59;;;29.36;59.98
81865;BME280;71313;43.514;1.500;2023-08-24T03:06:21;99532.53;;;29.35;59.73
81865;BME280;71313;43.514;1.500;2023-08-24T03:08:49;99531.44;;;29.36;59.21
81865;BME280;71313;43.514;1.500;2023-08-24T03:11:14;99533.13;;;29.37;59.64
81865;BME280;71313;43.514;1.500;2023-08-24T03:13:40;99529.28;;;29.38;59.82
81865;BME280;71313;43.514;1.500;2023-08-24T03:16:06;99525.91;;;29.36;59.51
81865;BME280;71313;43.514;1.500;2023-08-24T03:18:32;99523.38;;;29.35;59.45
81865;BME280;71313;43.514;1.500;2023-08-24T03:20:57;99531.44;;;29.36;59.42
81865;BME280;71313;43.514;1.500;2023-08-24T03:23:23;99525.91;;;29.36;59.42
81865;BME280;71313;43.514;1.500;2023-08-24T03:25:48;99528.69;;;29.36;59.39
81865;BME280;71313;43.514;1.500;2023-08-24T03:28:14;99536.97;;;29.36;59.18
81865;BME280;71313;43.514;1.500;2023-08-24T03:30:46;99538.66;;;29.37;59.49
81865;BME280;71313;43.514;1.500;2023-08-24T03:33:11;99539.75;;;29.36;59.83
81865;BME280;71313;43.514;1.500;2023-08-24T03:35:37;99532.75;;;29.34;59.45
81865;BME280;71313;43.514;1.500;2023-08-24T03:38:02;99539.75;;;29.36;59.27
81865;BME280;71313;43.514;1.500;2023-08-24T03:40:29;99533.13;;;29.37;59.64
81865;BME280;71313;43.514;1.500;2023-08-24T03:42:55;99539.13;;;29.34;59.49
81865;BME280;71313;43.514;1.500;2023-08-24T03:45:21;99541.66;;;29.36;59.12
81865;BME280;71313;43.514;1.500;2023-08-24T03:47:46;99538.06;;;29.35;59.42
81865;BME280;71313;43.514;1.500;2023-08-24T03:50:12;99532.53;;;29.35;59.54
81865;BME280;71313;43.514;1.500;2023-08-24T03:52:37;99542.50;;;29.36;59.45
81865;BME280;71313;43.514;1.500;2023-08-24T03:55:05;99537.81;;;29.37;59.57
81865;BME280;71313;43.514;1.500;2023-08-24T03:57:31;99533.59;;;29.34;59.09
81865;BME280;71313;43.514;1.500;2023-08-24T03:59:57;99536.38;;;29.34;59.51
81865;BME280;71313;43.514;1.500;2023-08-24T04:02:23;99537.22;;;29.35;59.32
81865;BME280;71313;43.514;1.500;2023-08-24T04:04:48;99539.75;;;29.36;59.20
81865;BME280;71313;43.514;1.500;2023-08-24T04:07:14;99535.28;;;29.35;59.13
81865;BME280;71313;43.514;1.500;2023-08-24T04:09:40;99536.13;;;29.36;59.44
81865;BME280;71313;43.514;1.500;2023-08-24T04:12:05;99529.75;;;29.35;59.37
81865;BME280;71313;43.514;1.500;2023-08-24T04:14:31;99528.06;;;29.34;59.32
81865;BME280;71313;43.514;1.500;2023-08-24T04:16:56;99520.84;;;29.33;58.75
81865;BME280;71313;43.514;1.500;2023-08-24T04:19:22;99528.91;;;29.35;59.31
81865;BME280;71313;43.514;1.500;2023-08-24T04:21:47;99527.00;;;29.35;59.94
81865;BME280;71313;43.514;1.500;2023-08-24T04:24:12;99524.22;;;29.35;58.99
81865;BME280;71313;43.514;1.500;2023-08-24T04:26:38;99521.69;;;29.34;58.85
81865;BME280;71313;43.514;1.500;2023-08-24T04:29:03;99527.22;;;29.34;59.12
81865;BME280;71313;43.514;1.500;2023-08-24T04:31:29;99518.09;;;29.33;59.50
81865;BME280;71313;43.514;1.500;2023-08-24T04:33:54;99525.31;;;29.34;58.77
81865;BME280;71313;43.514;1.500;2023-08-24T04:36:19;99524.47;;;29.34;58.79
81865;BME280;71313;43.514;1.500;2023-08-24T04:38:45;99522.53;;;29.34;59.09
81865;BME280;71313;43.514;1.500;2023-08-24T04:41:10;99522.53;;;29.34;58.95
81865;BME280;71313;43.514;1.500;2023-08-24T04:43:37;99529.75;;;29.35;59.21
81865;BME280;71313;43.514;1.500;2023-08-24T04:46:02;99528.06;;;29.34;58.96
81865;BME280;71313;43.514;1.500;2023-08-24T04:48:28;99525.31;;;29.34;59.29
81865;BME280;71313;43.514;1.500;2023-08-24T04:50:58;99525.31;;;29.34;58.76
81865;BME280;71313;43.514;1.500;2023-08-24T04:53:24;99528.06;;;29.34;58.99
81865;BME280;71313;43.514;1.500;2023-08-24T04:55:50;99521.69;;;29.34;59.04
81865;BME280;71313;43.514;1.500;2023-08-24T04:58:15;99526.38;;;29.33;59.33
81865;BME280;71313;43.514;1.500;2023-08-24T05:00:41;99529.16;;;29.33;59.31
81865;BME280;71313;43.514;1.500;2023-08-24T05:03:07;99528.31;;;29.33;58.80
81865;BME280;71313;43.514;1.500;2023-08-24T05:05:33;99529.16;;;29.33;59.07
81865;BME280;71313;43.514;1.500;2023-08-24T05:08:00;99527.22;;;29.34;58.61
81865;BME280;71313;43.514;1.500;2023-08-24T05:10:30;99526.38;;;29.33;59.14
81865;BME280;71313;43.514;1.500;2023-08-24T05:12:55;99523.84;;;29.32;59.18
81865;BME280;71313;43.514;1.500;2023-08-24T05:15:21;99526.38;;;29.33;58.77
81865;BME280;71313;43.514;1.500;2023-08-24T05:17:46;99524.69;;;29.32;59.36
81865;BME280;71313;43.514;1.500;2023-08-24T05:20:12;99523.84;;;29.32;58.61
81865;BME280;71313;43.514;1.500;2023-08-24T05:22:40;99530.22;;;29.32;59.13
81865;BME280;71313;43.514;1.500;2023-08-24T05:25:06;99524.69;;;29.32;59.20
81865;BME280;71313;43.514;1.500;2023-08-24T05:27:31;99534.69;;;29.33;59.14
81865;BME280;71313;43.514;1.500;2023-08-24T05:29:57;99536.59;;;29.33;59.29
81865;BME280;71313;43.514;1.500;2023-08-24T05:32:22;99536.59;;;29.33;59.06
81865;BME280;71313;43.514;1.500;2023-08-24T05:34:48;99538.28;;;29.34;59.36
81865;BME280;71313;43.514;1.500;2023-08-24T05:37:13;99536.59;;;29.33;58.73
81865;BME280;71313;43.514;1.500;2023-08-24T05:39:39;99528.53;;;29.31;58.59
81865;BME280;71313;43.514;1.500;2023-08-24T05:42:05;99541.28;;;29.32;59.37
81865;BME280;71313;43.514;1.500;2023-08-24T05:44:30;99541.28;;;29.32;59.03
81865;BME280;71313;43.514;1.500;2023-08-24T05:46:56;99535.75;;;29.32;58.66
81865;BME280;71313;43.514;1.500;2023-08-24T05:49:21;99545.97;;;29.32;58.44
81865;BME280;71313;43.514;1.500;2023-08-24T05:51:49;99539.59;;;29.31;58.83
81865;BME280;71313;43.514;1.500;2023-08-24T05:54:15;99538.53;;;29.32;58.89
81865;BME280;71313;43.514;1.500;2023-08-24T05:56:43;99541.28;;;29.32;58.56
81865;BME280;71313;43.514;1.500;2023-08-24T05:59:09;99538.75;;;29.31;58.62
81865;BME280;71313;43.514;1.500;2023-08-24T06:01:34;99544.06;;;29.32;58.58
81865;BME280;71313;43.514;1.500;2023-08-24T06:04:07;99541.28;;;29.32;58.71
81865;BME280;71313;43.514;1.500;2023-08-24T06:06:32;99547.88;;;29.31;58.83
81865;BME280;71313;43.514;1.500;2023-08-24T06:08:58;99545.13;;;29.31;58.77
81865;BME280;71313;43.514;1.500;2023-08-24T06:11:23;99545.13;;;29.31;58.90
81865;BME280;71313;43.514;1.500;2023-08-24T06:13:49;99547.06;;;29.31;58.49
81865;BME280;71313;43.514;1.500;2023-08-24T06:16:15;99546.22;;;29.30;58.12
81865;BME280;71313;43.514;1.500;2023-08-24T06:18:40;99543.44;;;29.30;57.44
81865;BME280;71313;43.514;1.500;2023-08-24T06:21:05;99545.59;;;29.28;57.41
81865;BME280;71313;43.514;1.500;2023-08-24T06:23:31;99543.91;;;29.27;57.37
81865;BME280;71313;43.514;1.500;2023-08-24T06:25:56;99537.53;;;29.27;57.05
81865;BME280;71313;43.514;1.500;2023-08-24T06:28:22;99546.91;;;29.26;56.79
81865;BME280;71313;43.514;1.500;2023-08-24T06:30:47;99547.75;;;29.26;56.92
81865;BME280;71313;43.514;1.500;2023-08-24T06:33:13;99542.22;;;29.26;56.62
81865;BME280;71313;43.514;1.500;2023-08-24T06:35:38;99543.91;;;29.27;56.87
81865;BME280;71313;43.514;1.500;2023-08-24T06:38:05;99543.91;;;29.27;57.05
81865;BME280;71313;43.514;1.500;2023-08-24T06:40:31;99543.06;;;29.27;57.02
81865;BME280;71313;43.514;1.500;2023-08-24T06:42:57;99537.53;;;29.27;56.81
81865;BME280;71313;43.514;1.500;2023-08-24T06:45:22;99545.59;;;29.28;57.60
81865;BME280;71313;43.514;1.500;2023-08-24T06:47:48;99540.06;;;29.28;57.94
81865;BME280;71313;43.514;1.500;2023-08-24T06:50:14;99548.38;;;29.28;57.27
81865;BME280;71313;43.514;1.500;2023-08-24T06:52:41;99545.59;;;29.28;57.08
81865;BME280;71313;43.514;1.500;2023-08-24T06:55:08;99540.91;;;29.29;57.59
81865;BME280;71313;43.514;1.500;2023-08-24T06:57:35;99543.06;;;29.27;56.71
81865;BME280;71313;43.514;1.500;2023-08-24T07:00:00;99539.47;;;29.26;56.48
81865;BME280;71313;43.514;1.500;2023-08-24T07:02:26;99544.38;;;29.24;55.94
81865;BME280;71313;43.514;1.500;2023-08-24T07:04:51;99552.69;;;29.24;55.47
81865;BME280;71313;43.514;1.500;2023-08-24T07:07:16;99549.31;;;29.22;55.21
81865;BME280;71313;43.514;1.500;2023-08-24T07:09:42;99540.16;;;29.22;55.02
81865;BME280;71313;43.514;1.500;2023-08-24T07:12:08;99546.78;;;29.21;54.89
81865;BME280;71313;43.514;1.500;2023-08-24T07:14:36;99550.38;;;29.21;54.84
81865;BME280;71313;43.514;1.500;2023-08-24T07:17:01;99555.91;;;29.21;54.75
81865;BME280;71313;43.514;1.500;2023-08-24T07:19:27;99560.13;;;29.24;54.54
81865;BME280;71313;43.514;1.500;2023-08-24T07:21:53;99559.28;;;29.23;54.76
81865;BME280;71313;43.514;1.500;2023-08-24T07:24:18;99550.16;;;29.23;54.38
81865;BME280;71313;43.514;1.500;2023-08-24T07:26:46;99559.28;;;29.23;54.85
81865;BME280;71313;43.514;1.500;2023-08-24T07:29:11;99549.06;;;29.24;54.38
81865;BME280;71313;43.514;1.500;2023-08-24T07:31:37;99556.50;;;29.23;54.46
81865;BME280;71313;43.514;1.500;2023-08-24T07:34:02;99545.47;;;29.23;54.50
81865;BME280;71313;43.514;1.500;2023-08-24T07:36:29;99548.00;;;29.25;54.39
81865;BME280;71313;43.514;1.500;2023-08-24T07:38:55;99546.06;;;29.25;54.33
81865;BME280;71313;43.514;1.500;2023-08-24T07:41:20;99545.22;;;29.25;54.47
81865;BME280;71313;43.514;1.500;2023-08-24T07:43:46;99534.16;;;29.25;54.55
81865;BME280;71313;43.514;1.500;2023-08-24T07:46:11;99532.50;;;29.24;54.72
81865;BME280;71313;43.514;1.500;2023-08-24T07:48:37;99533.34;;;29.24;55.18
81865;BME280;71313;43.514;1.500;2023-08-24T07:51:02;99526.72;;;29.25;54.62
81865;BME280;71313;43.514;1.500;2023-08-24T07:53:28;99529.50;;;29.25;54.78
81865;BME280;71313;43.514;1.500;2023-08-24T07:55:54;99512.91;;;29.25;54.87
81865;BME280;71313;43.514;1.500;2023-08-24T07:58:23;99522.03;;;29.26;54.87
81865;BME280;71313;43.514;1.500;2023-08-24T08:00:50;99517.59;;;29.25;55.01
81865;BME280;71313;43.514;1.500;2023-08-24T08:03:17;99523.97;;;29.25;55.34
81865;BME280;71313;43.514;1.500;2023-08-24T08:05:43;99524.81;;;29.26;55.61
81865;BME280;71313;43.514;1.500;2023-08-24T08:08:08;99523.97;;;29.25;55.31
81865;BME280;71313;43.514;1.500;2023-08-24T08:10:33;99526.72;;;29.25;55.71
81865;BME280;71313;43.514;1.500;2023-08-24T08:12:59;99528.41;;;29.26;55.71
81865;BME280;71313;43.514;1.500;2023-08-24T08:15:24;99523.13;;;29.25;55.95
81865;BME280;71313;43.514;1.500;2023-08-24T08:17:50;99522.88;;;29.26;55.50
81865;BME280;71313;43.514;1.500;2023-08-24T08:20:16;99536.69;;;29.26;55.93
81865;BME280;71313;43.514;1.500;2023-08-24T08:22:41;99527.34;;;29.27;55.44
81865;BME280;71313;43.514;1.500;2023-08-24T08:25:07;99532.00;;;29.27;55.44
81865;BME280;71313;43.514;1.500;2023-08-24T08:27:33;99537.53;;;29.27;55.50
81865;BME280;71313;43.514;1.500;2023-08-24T08:29:58;99532.84;;;29.27;55.27
81865;BME280;71313;43.514;1.500;2023-08-24T08:32:24;99545.59;;;29.28;55.74
81865;BME280;71313;43.514;1.500;2023-08-24T08:34:55;99534.53;;;29.28;55.70
81865;BME280;71313;43.514;1.500;2023-08-24T08:37:23;99538.38;;;29.27;56.03
81865;BME280;71313;43.514;1.500;2023-08-24T08:39:49;99532.84;;;29.27;55.69
81865;BME280;71313;43.514;1.500;2023-08-24T08:42:14;99539.22;;;29.28;55.84
81865;BME280;71313;43.514;1.500;2023-08-24T08:44:41;99531.78;;;29.28;55.73
81865;BME280;71313;43.514;1.500;2023-08-24T08:47:07;99532.84;;;29.27;55.86
81865;BME280;71313;43.514;1.500;2023-08-24T08:49:34;99534.53;;;29.28;55.58
81865;BME280;71313;43.514;1.500;2023-08-24T08:52:01;99537.31;;;29.28;55.37
81865;BME280;71313;43.514;1.500;2023-08-24T08:54:27;99529.84;;;29.29;55.95
81865;BME280;71313;43.514;1.500;2023-08-24T08:56:53;99529.00;;;29.28;55.89
81865;BME280;71313;43.514;1.500;2023-08-24T08:59:20;99527.09;;;29.29;56.19
81865;BME280;71313;43.514;1.500;2023-08-24T09:01:47;99519.66;;;29.29;55.87
81865;BME280;71313;43.514;1.500;2023-08-24T09:04:12;99522.41;;;29.29;55.71
81865;BME280;71313;43.514;1.500;2023-08-24T09:06:39;99525.19;;;29.29;56.07
81865;BME280;71313;43.514;1.500;2023-08-24T09:09:05;99518.81;;;29.29;55.81
81865;BME280;71313;43.514;1.500;2023-08-24T09:11:31;99524.34;;;29.29;56.17
81865;BME280;71313;43.514;1.500;2023-08-24T09:13:58;99520.50;;;29.30;56.49
81865;BME280;71313;43.514;1.500;2023-08-24T09:16:28;99523.00;;;29.31;56.70
81865;BME280;71313;43.514;1.500;2023-08-24T09:18:54;99523.84;;;29.32;57.14
81865;BME280;71313;43.514;1.500;2023-08-24T09:21:19;99530.22;;;29.32;56.62
81865;BME280;71313;43.514;1.500;2023-08-24T09:23:52;99531.91;;;29.33;56.89
81865;BME280;71313;43.514;1.500;2023-08-24T09:26:31;99529.38;;;29.32;57.36
81865;BME280;71313;43.514;1.500;2023-08-24T09:28:57;99523.00;;;29.31;57.50
81865;BME280;71313;43.514;1.500;2023-08-24T09:31:23;99527.22;;;29.34;57.82
81865;BME280;71313;43.514;1.500;2023-08-24T09:34:00;99525.53;;;29.33;58.21
81865;BME280;71313;43.514;1.500;2023-08-24T09:36:26;99526.38;;;29.33;58.02
81865;BME280;71313;43.514;1.500;2023-08-24T09:38:51;99526.38;;;29.33;57.96
81865;BME280;71313;43.514;1.500;2023-08-24T09:41:17;99523.63;;;29.33;58.25
81865;BME280;71313;43.514;1.500;2023-08-24T09:43:43;99524.69;;;29.32;58.10
81865;BME280;71313;43.514;1.500;2023-08-24T09:46:08;99531.91;;;29.33;58.11
81865;BME280;71313;43.514;1.500;2023-08-24T09:48:33;99529.16;;;29.33;57.97
81865;BME280;71313;43.514;1.500;2023-08-24T09:51:03;99528.06;;;29.34;57.99
81865;BME280;71313;43.514;1.500;2023-08-24T09:53:32;99532.75;;;29.34;58.14
81865;BME280;71313;43.514;1.500;2023-08-24T09:56:02;99532.53;;;29.35;58.06
81865;BME280;71313;43.514;1.500;2023-08-24T09:58:28;99527.22;;;29.34;58.47
81865;BME280;71313;43.514;1.500;2023-08-24T10:00:55;99520.84;;;29.33;58.54
81865;BME280;71313;43.514;1.500;2023-08-24T10:03:24;99529.75;;;29.35;58.80
81865;BME280;71313;43.514;1.500;2023-08-24T10:05:57;99522.53;;;29.34;58.80
81865;BME280;71313;43.514;1.500;2023-08-24T10:08:27;99525.91;;;29.36;58.45
81865;BME280;71313;43.514;1.500;2023-08-24T10:10:55;99524.22;;;29.35;58.47
81865;BME280;71313;43.514;1.500;2023-08-24T10:13:31;99521.47;;;29.35;58.97
81865;BME280;71313;43.514;1.500;2023-08-24T10:15:59;99515.94;;;29.35;58.76
81865;BME280;71313;43.514;1.500;2023-08-24T10:18:25;99513.78;;;29.37;58.78
81865;BME280;71313;43.514;1.500;2023-08-24T10:20:52;99513.78;;;29.37;58.63
81865;BME280;71313;43.514;1.500;2023-08-24T10:23:19;99506.56;;;29.36;58.99
81865;BME280;71313;43.514;1.500;2023-08-24T10:25:46;99506.34;;;29.38;58.66
81865;BME280;71313;43.514;1.500;2023-08-24T10:28:11;99513.78;;;29.37;59.44
81865;BME280;71313;43.514;1.500;2023-08-24T10:30:39;99513.78;;;29.37;59.24
81865;BME280;71313;43.514;1.500;2023-08-24T10:33:05;99511.00;;;29.37;59.06
81865;BME280;71313;43.514;1.500;2023-08-24T10:35:32;99518.22;;;29.38;59.19
81865;BME280;71313;43.514;1.500;2023-08-24T10:38:00;99513.78;;;29.37;59.55
81865;BME280;71313;43.514;1.500;2023-08-24T10:40:33;99512.69;;;29.38;58.82
81865;BME280;71313;43.514;1.500;2023-08-24T10:43:02;99507.16;;;29.38;58.59
81865;BME280;71313;43.514;1.500;2023-08-24T10:46:01;99510.16;;;29.37;59.49
81865;BME280;71313;43.514;1.500;2023-08-24T10:48:31;99504.41;;;29.38;59.44
81865;BME280;71313;43.514;1.500;2023-08-24T10:53:39;99509.94;;;29.38;59.19
81865;BME280;71313;43.514;1.500;2023-08-24T10:56:15;99499.72;;;29.39;59.30
81865;BME280;71313;43.514;1.500;2023-08-24T10:58:42;99508.84;;;29.39;59.05
81865;BME280;71313;43.514;1.500;2023-08-24T11:01:14;99509.09;;;29.38;59.26
81865;BME280;71313;43.514;1.500;2023-08-24T11:03:40;99503.34;;;29.39;59.00
81865;BME280;71313;43.514;1.500;2023-08-24T11:06:21;99510.53;;;29.40;59.51
81865;BME280;71313;43.514;1.500;2023-08-24T11:08:47;99499.47;;;29.40;59.32
81865;BME280;71313;43.514;1.500;2023-08-24T11:11:23;99505.00;;;29.40;59.07
81865;BME280;71313;43.514;1.500;2023-08-24T11:14:18;99500.56;;;29.39;59.42
81865;BME280;71313;43.514;1.500;2023-08-24T11:17:00;99500.56;;;29.39;59.01
81865;BME280;71313;43.514;1.500;2023-08-24T11:19:27;99496.13;;;29.38;59.15
81865;BME280;71313;43.514;1.500;2023-08-24T11:21:53;99492.28;;;29.39;59.44
81865;BME280;71313;43.514;1.500;2023-08-24T11:24:18;99495.88;;;29.40;59.12
81865;BME280;71313;43.514;1.500;2023-08-24T11:26:48;99489.28;;;29.41;59.14
81865;BME280;71313;43.514;1.500;2023-08-24T11:29:14;99489.50;;;29.39;59.35
81865;BME280;71313;43.514;1.500;2023-08-24T11:31:43;99485.66;;;29.40;59.43
81865;BME280;71313;43.514;1.500;2023-08-24T11:34:10;99481.81;;;29.41;59.23
81865;BME280;71313;43.514;1.500;2023-08-24T11:36:43;99479.06;;;29.41;59.38
81865;BME280;71313;43.514;1.500;2023-08-24T11:39:18;99468.00;;;29.41;59.13
81865;BME280;71313;43.514;1.500;2023-08-24T11:44:23;99471.84;;;29.40;59.38
81865;BME280;71313;43.514;1.500;2023-08-24T11:46:49;99479.06;;;29.41;59.20
81865;BME280;71313;43.514;1.500;2023-08-24T11:49:14;99473.53;;;29.41;59.30
81865;BME280;71313;43.514;1.500;2023-08-24T11:51:40;99468.00;;;29.41;59.47
81865;BME280;71313;43.514;1.500;2023-08-24T11:54:05;99471.41;;;29.44;59.49
81865;BME280;71313;43.514;1.500;2023-08-24T11:56:31;99464.19;;;29.43;59.12
81865;BME280;71313;43.514;1.500;2023-08-24T11:58:57;99463.34;;;29.42;59.17
81865;BME280;71313;43.514;1.500;2023-08-24T12:01:22;99464.19;;;29.43;59.57
81865;BME280;71313;43.514;1.500;2023-08-24T12:03:48;99460.34;;;29.44;59.21
81865;BME280;71313;43.514;1.500;2023-08-24T12:06:15;99460.34;;;29.44;59.27
81865;BME280;71313;43.514;1.500;2023-08-24T12:08:43;99448.44;;;29.43;59.03
81865;BME280;71313;43.514;1.500;2023-08-24T12:11:13;99455.66;;;29.44;59.31
81865;BME280;71313;43.514;1.500;2023-08-24T12:13:43;99462.88;;;29.45;59.04
81865;BME280;71313;43.514;1.500;2023-08-24T12:16:10;99467.56;;;29.45;59.16
81865;BME280;71313;43.514;1.500;2023-08-24T12:18:37;99463.72;;;29.46;59.02
81865;BME280;71313;43.514;1.500;2023-08-24T12:21:11;99459.25;;;29.45;59.31
81865;BME280;71313;43.514;1.500;2023-08-24T12:23:38;99458.19;;;29.46;58.95
81865;BME280;71313;43.514;1.500;2023-08-24T12:26:04;99458.19;;;29.46;59.11
81865;BME280;71313;43.514;1.500;2023-08-24T12:28:33;99454.34;;;29.47;59.21
81865;BME280;71313;43.514;1.500;2023-08-24T12:30:58;99446.28;;;29.45;59.09
81865;BME280;71313;43.514;1.500;2023-08-24T12:33:28;99449.88;;;29.46;59.42
81865;BME280;71313;43.514;1.500;2023-08-24T12:35:54;99448.81;;;29.47;59.53
81865;BME280;71313;43.514;1.500;2023-08-24T12:38:21;99452.66;;;29.46;59.16
81865;BME280;71313;43.514;1.500;2023-08-24T12:40:47;99451.56;;;29.47;59.13
81865;BME280;71313;43.514;1.500;2023-08-24T12:43:12;99449.88;;;29.46;58.79
81865;BME280;71313;43.514;1.500;2023-08-24T12:45:39;99451.56;;;29.47;58.84
81865;BME280;71313;43.514;1.500;2023-08-24T12:48:04;99444.97;;;29.48;59.31
81865;BME280;71313;43.514;1.500;2023-08-24T12:50:30;99439.44;;;29.48;58.78
81865;BME280;71313;43.514;1.500;2023-08-24T12:52:55;99444.97;;;29.48;58.88
81865;BME280;71313;43.514;1.500;2023-08-24T12:55:25;99436.66;;;29.48;58.74
81865;BME280;71313;43.514;1.500;2023-08-24T12:57:50;99436.44;;;29.49;59.33
81865;BME280;71313;43.514;1.500;2023-08-24T13:00:16;99433.91;;;29.48;58.96
81865;BME280;71313;43.514;1.500;2023-08-24T13:02:41;99435.59;;;29.49;59.07
81865;BME280;71313;43.514;1.500;2023-08-24T13:05:07;99429.22;;;29.48;59.12
81865;BME280;71313;43.514;1.500;2023-08-24T13:07:33;99428.38;;;29.48;58.75